createdAt,value
2022-12-28T00:00:12.828Z,3.50
2022-12-28T00:00:53.390Z,3.20
2022-12-28T00:01:37.984Z,2.90
2022-12-28T00:02:11.455Z,2.70
2022-12-28T00:02:44.985Z,3.20
2022-12-28T00:03:18.771Z,3.10
2022-12-28T00:03:52.946Z,3.20
2022-12-28T00:04:26.327Z,3.40
2022-12-28T00:04:59.897Z,2.80
2022-12-28T00:05:38.585Z,3.00
2022-12-28T00:06:13.429Z,2.90
2022-12-28T00:06:52.628Z,2.90
2022-12-28T00:07:27.476Z,2.60
2022-12-28T00:08:09.692Z,2.90
2022-12-28T00:08:44.823Z,2.50
2022-12-28T00:09:18.194Z,2.80
2022-12-28T00:09:51.733Z,2.90
2022-12-28T00:11:08.239Z,2.70
2022-12-28T00:11:42.823Z,2.30
2022-12-28T00:12:16.282Z,2.50
2022-12-28T00:12:49.717Z,2.40
2022-12-28T00:13:23.177Z,2.80
2022-12-28T00:13:57.928Z,2.70
2022-12-28T00:14:31.634Z,2.80
2022-12-28T00:15:05.592Z,2.50
2022-12-28T00:15:39.035Z,2.60
2022-12-28T00:16:30.926Z,2.80
2022-12-28T00:17:04.392Z,2.50
2022-12-28T00:17:41.374Z,2.90
2022-12-28T00:19:05.766Z,4.80
2022-12-28T00:19:44.559Z,3.90
2022-12-28T00:20:18.281Z,3.20
2022-12-28T00:20:59.606Z,3.60
2022-12-28T00:21:34.177Z,3.40
2022-12-28T00:22:07.695Z,3.10
2022-12-28T00:22:41.015Z,3.40
2022-12-28T00:23:14.465Z,3.30
2022-12-28T00:23:58.109Z,3.40
2022-12-28T00:24:34.930Z,2.90
2022-12-28T00:25:21.252Z,3.80
2022-12-28T00:27:34.081Z,4.00
2022-12-28T00:27:37.966Z,4.80
2022-12-28T00:28:11.363Z,4.60
2022-12-28T00:28:44.800Z,7.70
2022-12-28T00:29:19.185Z,8.50
2022-12-28T00:29:52.956Z,8.40
2022-12-28T00:30:50.314Z,8.30
2022-12-28T00:31:24.544Z,7.00
2022-12-28T00:33:26.613Z,5.00
2022-12-28T00:33:37.763Z,7.20
2022-12-28T00:34:00.041Z,4.80
2022-12-28T00:34:33.491Z,4.90
2022-12-28T00:35:16.199Z,5.20
2022-12-28T00:35:57.440Z,5.80
2022-12-28T00:37:09.757Z,5.30
2022-12-28T00:37:26.544Z,5.40
2022-12-28T00:38:12.437Z,4.70
2022-12-28T00:38:46.731Z,4.50
2022-12-28T00:39:21.390Z,4.70
2022-12-28T00:39:55.029Z,4.30
2022-12-28T00:40:28.483Z,4.20
2022-12-28T00:41:01.990Z,4.20
2022-12-28T00:41:45.658Z,4.00
2022-12-28T00:42:25.000Z,4.70
2022-12-28T00:43:14.062Z,5.60
2022-12-28T00:43:47.469Z,4.80
2022-12-28T00:44:20.874Z,5.30
2022-12-28T00:44:55.511Z,5.50
2022-12-28T00:45:28.887Z,5.50
2022-12-28T00:46:02.514Z,5.30
2022-12-28T00:47:20.324Z,4.50
2022-12-28T00:48:44.094Z,4.60
2022-12-28T00:50:03.627Z,4.60
2022-12-28T00:50:37.071Z,4.60
2022-12-28T00:51:19.180Z,4.60
2022-12-28T00:52:09.556Z,4.80
2022-12-28T00:53:54.368Z,4.30
2022-12-28T00:54:27.766Z,4.50
2022-12-28T00:55:01.287Z,4.70
2022-12-28T00:55:35.196Z,4.90
2022-12-28T00:56:13.690Z,5.00
2022-12-28T00:56:47.595Z,4.70
2022-12-28T00:57:21.246Z,4.60
2022-12-28T00:57:54.749Z,4.40
2022-12-28T00:58:28.213Z,4.40
2022-12-28T00:59:01.717Z,4.90
2022-12-28T00:59:35.598Z,4.80
2022-12-28T01:00:09.677Z,4.70
2022-12-28T01:00:43.033Z,4.60
2022-12-28T01:01:21.563Z,5.20
2022-12-28T01:01:55.242Z,5.10
2022-12-28T01:02:28.904Z,5.00
2022-12-28T01:03:02.713Z,5.00
2022-12-28T01:03:45.056Z,5.10
2022-12-28T01:04:18.423Z,5.50
2022-12-28T01:04:51.830Z,5.50
2022-12-28T01:05:25.620Z,5.40
2022-12-28T01:05:59.491Z,5.60
2022-12-28T01:06:32.806Z,5.30
2022-12-28T01:07:06.143Z,5.40
2022-12-28T01:07:46.323Z,5.40
2022-12-28T01:08:19.699Z,5.40
2022-12-28T01:08:53.954Z,5.50
2022-12-28T01:09:27.353Z,5.40
2022-12-28T01:10:01.272Z,5.30
2022-12-28T01:10:34.605Z,6.20
2022-12-28T01:11:14.270Z,6.60
2022-12-28T01:11:47.599Z,6.20
2022-12-28T01:12:21.407Z,6.00
2022-12-28T01:12:56.002Z,5.90
2022-12-28T01:13:31.127Z,6.00
2022-12-28T01:14:05.919Z,6.00
2022-12-28T01:15:42.128Z,5.60
2022-12-28T01:16:01.855Z,5.00
2022-12-28T01:16:37.640Z,5.70
2022-12-28T01:17:11.077Z,5.80
2022-12-28T01:17:44.551Z,5.90
2022-12-28T01:18:18.031Z,5.30
2022-12-28T01:18:53.706Z,5.90
2022-12-28T01:19:28.119Z,5.50
2022-12-28T01:20:01.770Z,5.90
2022-12-28T01:20:35.205Z,5.90
2022-12-28T01:21:13.896Z,5.60
2022-12-28T01:21:51.402Z,5.90
2022-12-28T01:22:24.723Z,5.60
2022-12-28T01:22:58.104Z,5.60
2022-12-28T01:23:31.618Z,5.40
2022-12-28T01:24:10.477Z,5.20
2022-12-28T01:25:01.385Z,5.20
2022-12-28T01:32:56.347Z,5.30
2022-12-28T01:33:11.586Z,4.10
2022-12-28T01:39:49.864Z,4.30
2022-12-28T01:40:09.959Z,3.60
2022-12-28T01:41:21.747Z,4.30
2022-12-28T01:41:56.848Z,4.80
2022-12-28T01:42:30.212Z,4.70
2022-12-28T01:42:59.130Z,4.10
2022-12-28T01:43:13.557Z,4.20
2022-12-28T01:43:48.825Z,4.30
2022-12-28T01:44:24.629Z,4.80
2022-12-28T01:44:57.958Z,5.40
2022-12-28T01:45:36.179Z,4.90
2022-12-28T01:46:41.979Z,5.70
2022-12-28T01:47:24.295Z,4.70
2022-12-28T01:47:57.949Z,4.70
2022-12-28T01:48:36.059Z,5.00
2022-12-28T01:49:18.756Z,5.40
2022-12-28T01:50:11.159Z,5.20
2022-12-28T01:51:02.115Z,5.10
2022-12-28T01:51:54.400Z,5.20
2022-12-28T01:53:14.020Z,5.10
2022-12-28T02:01:03.794Z,4.20
2022-12-28T02:01:37.678Z,4.90
2022-12-28T02:02:13.892Z,4.60
2022-12-28T02:02:53.776Z,5.10
2022-12-28T02:03:29.477Z,5.00
2022-12-28T02:04:03.219Z,5.00
2022-12-28T02:04:36.713Z,5.00
2022-12-28T02:05:10.303Z,4.90
2022-12-28T02:05:46.629Z,5.20
2022-12-28T02:06:20.399Z,5.30
2022-12-28T02:06:55.757Z,5.50
2022-12-28T02:07:46.593Z,5.10
2022-12-28T02:08:25.786Z,4.90
2022-12-28T02:09:24.260Z,4.90
2022-12-28T02:10:41.174Z,4.60
2022-12-28T02:10:53.801Z,4.80
2022-12-28T02:11:27.683Z,5.20
2022-12-28T02:12:01.420Z,4.80
2022-12-28T02:12:35.732Z,4.90
2022-12-28T02:13:15.474Z,5.10
2022-12-28T02:13:51.748Z,5.30
2022-12-28T02:14:25.505Z,4.80
2022-12-28T02:14:59.146Z,5.10
2022-12-28T02:15:32.614Z,5.40
2022-12-28T02:16:06.444Z,5.30
2022-12-28T02:16:40.599Z,5.00
2022-12-28T02:17:15.006Z,5.10
2022-12-28T02:17:48.457Z,5.30
2022-12-28T02:18:22.595Z,4.90
2022-12-28T02:18:56.348Z,5.10
2022-12-28T02:19:40.617Z,5.30
2022-12-28T02:20:14.718Z,5.00
2022-12-28T02:21:04.839Z,5.10
2022-12-28T02:22:04.640Z,4.50
2022-12-28T02:22:59.158Z,4.40
2022-12-28T02:23:59.623Z,4.40
2022-12-28T02:25:12.646Z,4.80
2022-12-28T02:26:14.945Z,3.90
2022-12-28T02:27:49.362Z,3.60
2022-12-28T02:28:41.869Z,4.30
2022-12-28T02:30:00.373Z,4.10
2022-12-28T02:30:40.238Z,4.00
2022-12-28T02:31:21.612Z,4.30
2022-12-28T02:32:26.786Z,4.40
2022-12-28T02:33:09.231Z,4.40
2022-12-28T02:42:44.708Z,4.20
2022-12-28T02:44:39.804Z,4.60
2022-12-28T02:45:56.852Z,4.40
2022-12-28T02:46:52.118Z,4.70
2022-12-28T02:47:44.315Z,4.40
2022-12-28T02:51:51.235Z,3.90
2022-12-28T02:52:35.662Z,3.70
2022-12-28T02:53:48.525Z,3.30
2022-12-28T02:55:02.560Z,4.00
2022-12-28T02:56:07.427Z,3.70
2022-12-28T02:56:55.492Z,3.40
2022-12-28T02:57:57.260Z,4.10
2022-12-28T02:58:39.663Z,3.90
2022-12-28T02:59:23.603Z,4.10
2022-12-28T03:00:09.149Z,4.00
2022-12-28T03:01:16.778Z,3.40
2022-12-28T03:01:50.315Z,3.90
2022-12-28T03:02:26.575Z,3.70
2022-12-28T03:03:33.625Z,3.90
2022-12-28T03:04:23.704Z,3.80
2022-12-28T03:05:41.730Z,3.80
2022-12-28T03:06:51.567Z,3.40
2022-12-28T03:08:17.744Z,4.10
2022-12-28T03:09:02.222Z,3.60
2022-12-28T03:10:10.571Z,4.20
2022-12-28T03:11:02.562Z,3.70
2022-12-28T03:12:21.642Z,4.20
2022-12-28T03:13:32.178Z,3.40
2022-12-28T03:14:14.314Z,4.10
2022-12-28T03:14:57.378Z,3.90
2022-12-28T03:15:37.334Z,4.40
2022-12-28T03:16:29.572Z,4.20
2022-12-28T03:17:24.376Z,4.00
2022-12-28T03:18:22.437Z,3.70
2022-12-28T03:19:22.708Z,4.10
2022-12-28T03:20:23.543Z,4.00
2022-12-28T03:21:21.394Z,3.80
2022-12-28T03:22:16.025Z,3.60
2022-12-28T03:23:10.048Z,3.90
2022-12-28T03:24:05.560Z,3.90
2022-12-28T03:25:01.541Z,3.30
2022-12-28T03:25:57.184Z,3.70
2022-12-28T03:26:59.618Z,4.00
2022-12-28T03:27:54.257Z,3.80
2022-12-28T03:28:51.486Z,3.50
2022-12-28T03:29:47.484Z,3.50
2022-12-28T03:30:41.641Z,3.70
2022-12-28T03:31:19.267Z,4.20
2022-12-28T03:31:56.956Z,3.70
2022-12-28T03:32:32.157Z,3.70
2022-12-28T03:33:06.706Z,3.70
2022-12-28T03:33:52.845Z,3.80
2022-12-28T03:34:26.711Z,4.20
2022-12-28T03:35:00.512Z,3.70
2022-12-28T03:35:44.276Z,4.00
2022-12-28T03:36:39.182Z,4.10
2022-12-28T03:37:12.861Z,3.90
2022-12-28T03:38:27.601Z,3.90
2022-12-28T03:39:10.476Z,3.80
2022-12-28T03:40:22.742Z,4.00
2022-12-28T03:41:13.176Z,3.90
2022-12-28T03:42:17.491Z,3.80
2022-12-28T03:43:13.807Z,4.20
2022-12-28T03:43:54.126Z,4.10
2022-12-28T03:44:34.074Z,4.20
2022-12-28T03:45:46.312Z,4.20
2022-12-28T03:46:46.133Z,3.80
2022-12-28T03:47:22.772Z,4.10
2022-12-28T03:47:57.284Z,3.90
2022-12-28T03:48:34.079Z,4.00
2022-12-28T03:49:08.004Z,4.00
2022-12-28T03:49:41.748Z,3.80
2022-12-28T03:50:17.797Z,3.60
2022-12-28T03:50:54.148Z,4.30
2022-12-28T03:51:31.076Z,3.90
2022-12-28T03:52:08.973Z,3.70
2022-12-28T03:52:42.603Z,3.90
2022-12-28T03:53:19.537Z,4.20
2022-12-28T03:53:53.271Z,3.60
2022-12-28T03:54:28.247Z,4.00
2022-12-28T03:55:05.845Z,3.90
2022-12-28T03:55:40.912Z,3.70
2022-12-28T03:56:17.364Z,4.10
2022-12-28T03:56:52.218Z,4.10
2022-12-28T03:57:28.687Z,4.10
2022-12-28T03:58:02.263Z,4.30
2022-12-28T03:58:36.198Z,4.10
2022-12-28T03:59:09.921Z,4.40
2022-12-28T03:59:46.579Z,4.30
2022-12-28T04:00:20.152Z,4.20
2022-12-28T04:00:56.030Z,4.20
2022-12-28T04:01:29.637Z,4.50
2022-12-28T04:02:03.318Z,4.20
2022-12-28T04:02:38.992Z,4.30
2022-12-28T04:03:12.463Z,4.20
2022-12-28T04:03:46.201Z,4.50
2022-12-28T04:04:19.591Z,4.10
2022-12-28T04:04:53.670Z,4.40
2022-12-28T04:05:27.346Z,4.50
2022-12-28T04:06:00.740Z,4.50
2022-12-28T04:06:34.912Z,4.90
2022-12-28T04:07:09.154Z,4.10
2022-12-28T04:07:42.627Z,4.30
2022-12-28T04:08:16.007Z,4.60
2022-12-28T04:08:49.843Z,4.40
2022-12-28T04:09:23.434Z,4.40
2022-12-28T04:09:56.771Z,4.40
2022-12-28T04:10:30.242Z,4.30
2022-12-28T04:11:04.744Z,4.00
2022-12-28T04:11:39.361Z,4.40
2022-12-28T04:12:14.804Z,4.90
2022-12-28T04:13:06.821Z,4.30
2022-12-28T04:13:50.962Z,3.90
2022-12-28T04:14:24.749Z,4.40
2022-12-28T04:14:58.411Z,4.10
2022-12-28T04:15:31.903Z,4.30
2022-12-28T04:16:09.076Z,4.40
2022-12-28T04:16:42.703Z,4.00
2022-12-28T04:17:19.800Z,4.20
2022-12-28T04:17:53.413Z,3.90
2022-12-28T04:18:27.134Z,4.10
2022-12-28T04:19:00.530Z,4.00
2022-12-28T04:19:35.521Z,4.60
2022-12-28T04:20:09.869Z,3.90
2022-12-28T04:20:44.029Z,3.80
2022-12-28T04:21:18.702Z,3.60
2022-12-28T04:21:52.352Z,3.50
2022-12-28T04:22:26.737Z,3.80
2022-12-28T04:23:00.304Z,3.70
2022-12-28T04:23:34.440Z,3.60
2022-12-28T04:24:34.200Z,3.60
2022-12-28T04:25:07.996Z,3.60
2022-12-28T04:25:41.448Z,3.80
2022-12-28T04:26:17.760Z,3.60
2022-12-28T04:26:52.360Z,3.80
2022-12-28T04:27:26.121Z,3.80
2022-12-28T04:28:01.334Z,3.20
2022-12-28T04:28:53.490Z,3.50
2022-12-28T04:29:47.267Z,3.40
2022-12-28T04:30:25.519Z,3.30
2022-12-28T04:31:00.493Z,3.50
2022-12-28T04:31:34.317Z,3.70
2022-12-28T04:32:10.480Z,3.60
2022-12-28T04:32:43.984Z,3.70
2022-12-28T04:33:17.675Z,3.50
2022-12-28T04:33:52.556Z,3.60
2022-12-28T04:34:25.974Z,3.60
2022-12-28T04:35:04.315Z,3.50
2022-12-28T04:35:40.683Z,3.80
2022-12-28T04:36:16.668Z,3.70
2022-12-28T04:36:50.845Z,3.60
2022-12-28T04:37:25.963Z,3.90
2022-12-28T04:37:59.532Z,3.90
2022-12-28T04:38:34.114Z,3.70
2022-12-28T04:39:07.669Z,3.80
2022-12-28T04:39:55.791Z,4.40
2022-12-28T04:40:30.541Z,4.00
2022-12-28T04:41:05.365Z,4.00
2022-12-28T04:41:38.803Z,4.00
2022-12-28T04:42:12.311Z,4.30
2022-12-28T04:42:46.801Z,3.80
2022-12-28T04:43:20.157Z,4.30
2022-12-28T04:43:57.262Z,4.50
2022-12-28T04:44:31.333Z,4.10
2022-12-28T04:45:05.118Z,4.50
2022-12-28T04:45:38.884Z,4.40
2022-12-28T04:46:16.942Z,4.40
2022-12-28T04:46:50.482Z,4.30
2022-12-28T04:47:23.930Z,4.30
2022-12-28T04:47:58.405Z,4.70
2022-12-28T04:48:32.397Z,4.20
2022-12-28T04:49:05.759Z,4.80
2022-12-28T04:49:39.634Z,4.50
2022-12-28T04:50:12.958Z,4.30
2022-12-28T04:50:46.407Z,4.30
2022-12-28T04:51:25.831Z,4.60
2022-12-28T04:51:59.453Z,3.90
2022-12-28T04:52:34.174Z,4.00
2022-12-28T04:53:07.567Z,4.40
2022-12-28T04:53:41.669Z,4.20
2022-12-28T04:54:15.147Z,4.10
2022-12-28T04:54:48.959Z,4.10
2022-12-28T04:55:32.995Z,4.20
2022-12-28T04:56:08.620Z,4.60
2022-12-28T04:56:42.109Z,4.40
2022-12-28T04:57:15.721Z,4.10
2022-12-28T04:57:49.054Z,4.10
2022-12-28T04:58:22.585Z,3.90
2022-12-28T04:58:58.179Z,4.40
2022-12-28T04:59:31.504Z,4.80
2022-12-28T05:00:05.531Z,4.30
2022-12-28T05:00:39.256Z,4.10
2022-12-28T05:01:19.399Z,4.40
2022-12-28T05:01:54.583Z,4.10
2022-12-28T05:02:28.151Z,4.20
2022-12-28T05:03:01.740Z,4.10
2022-12-28T05:03:37.382Z,4.90
2022-12-28T05:04:10.748Z,4.50
2022-12-28T05:04:44.189Z,4.10
2022-12-28T05:05:17.649Z,4.30
2022-12-28T05:05:50.918Z,4.50
2022-12-28T05:06:25.897Z,3.90
2022-12-28T05:06:59.433Z,4.40
2022-12-28T05:07:33.018Z,4.20
2022-12-28T05:08:06.413Z,4.10
2022-12-28T05:08:40.465Z,4.00
2022-12-28T05:09:13.830Z,4.00
2022-12-28T05:09:47.184Z,3.80
2022-12-28T05:10:20.843Z,4.00
2022-12-28T05:10:54.980Z,4.40
2022-12-28T05:11:30.332Z,4.30
2022-12-28T05:12:04.171Z,4.00
2022-12-28T05:12:37.581Z,4.10
2022-12-28T05:13:10.995Z,4.50
2022-12-28T05:13:44.467Z,4.40
2022-12-28T05:14:17.823Z,4.20
2022-12-28T05:14:51.226Z,4.00
2022-12-28T05:15:24.499Z,3.70
2022-12-28T05:16:02.523Z,3.50
2022-12-28T05:16:36.044Z,3.70
2022-12-28T05:17:09.420Z,3.80
2022-12-28T05:17:42.847Z,3.60
2022-12-28T05:18:16.259Z,3.80
2022-12-28T05:18:49.879Z,3.60
2022-12-28T05:19:23.225Z,3.80
2022-12-28T05:19:56.948Z,3.70
2022-12-28T05:20:30.399Z,3.60
2022-12-28T05:21:03.804Z,3.80
2022-12-28T05:21:37.175Z,3.70
2022-12-28T05:22:12.262Z,4.10
2022-12-28T05:22:46.732Z,3.30
2022-12-28T05:23:20.049Z,3.90
2022-12-28T05:23:53.964Z,3.60
2022-12-28T05:24:27.319Z,3.80
2022-12-28T05:25:00.637Z,3.50
2022-12-28T05:25:33.963Z,3.60
2022-12-28T05:26:11.150Z,3.50
2022-12-28T05:26:44.478Z,3.60
2022-12-28T05:27:17.948Z,3.50
2022-12-28T05:27:51.344Z,3.30
2022-12-28T05:28:26.166Z,3.90
2022-12-28T05:28:59.573Z,3.40
2022-12-28T05:29:33.074Z,3.40
2022-12-28T05:30:07.401Z,3.50
2022-12-28T05:30:40.771Z,3.50
2022-12-28T05:31:17.692Z,3.30
2022-12-28T05:31:51.135Z,3.50
2022-12-28T05:32:24.645Z,3.60
2022-12-28T05:32:58.168Z,3.50
2022-12-28T05:33:33.458Z,3.40
2022-12-28T05:34:06.842Z,3.50
2022-12-28T05:34:40.348Z,3.30
2022-12-28T05:35:13.717Z,3.30
2022-12-28T05:35:47.377Z,3.30
2022-12-28T05:36:23.700Z,3.20
2022-12-28T05:36:57.065Z,3.20
2022-12-28T05:37:30.422Z,3.50
2022-12-28T05:38:03.972Z,3.30
2022-12-28T05:38:37.723Z,3.30
2022-12-28T05:39:11.217Z,3.70
2022-12-28T05:39:44.598Z,3.20
2022-12-28T05:40:18.044Z,3.30
2022-12-28T05:40:51.412Z,3.30
2022-12-28T05:41:27.107Z,3.30
2022-12-28T05:42:01.480Z,3.30
2022-12-28T05:42:36.013Z,3.10
2022-12-28T05:43:09.356Z,3.00
2022-12-28T05:43:44.023Z,2.70
2022-12-28T05:44:17.395Z,3.10
2022-12-28T05:44:50.884Z,3.60
2022-12-28T05:45:24.210Z,3.90
2022-12-28T05:46:05.296Z,3.50
2022-12-28T05:46:38.934Z,3.20
2022-12-28T05:47:14.089Z,3.40
2022-12-28T05:47:47.590Z,3.90
2022-12-28T05:48:20.980Z,3.30
2022-12-28T05:48:57.692Z,3.60
2022-12-28T05:49:31.007Z,3.20
2022-12-28T05:50:04.737Z,3.30
2022-12-28T05:50:38.162Z,3.60
2022-12-28T05:51:14.533Z,3.40
2022-12-28T05:51:52.172Z,3.80
2022-12-28T05:52:25.519Z,3.60
2022-12-28T05:52:58.847Z,3.60
2022-12-28T05:53:32.465Z,3.90
2022-12-28T05:54:05.877Z,3.80
2022-12-28T05:54:39.244Z,4.00
2022-12-28T05:55:12.744Z,4.20
2022-12-28T05:55:46.400Z,4.10
2022-12-28T05:56:25.114Z,4.40
2022-12-28T05:56:59.759Z,3.90
2022-12-28T05:57:33.118Z,4.10
2022-12-28T05:58:06.425Z,3.90
2022-12-28T05:58:40.077Z,4.30
2022-12-28T05:59:13.840Z,4.00
2022-12-28T05:59:47.188Z,4.00
2022-12-28T06:00:20.586Z,3.80
2022-12-28T06:00:54.097Z,4.10
2022-12-28T06:01:30.720Z,4.00
2022-12-28T06:02:07.233Z,4.00
2022-12-28T06:02:40.764Z,4.40
2022-12-28T06:03:14.296Z,4.20
2022-12-28T06:03:52.305Z,4.70
2022-12-28T06:04:25.674Z,4.40
2022-12-28T06:04:59.109Z,4.00
2022-12-28T06:05:32.464Z,4.30
2022-12-28T06:06:14.309Z,3.60
2022-12-28T06:06:49.157Z,4.10
2022-12-28T06:07:23.443Z,3.70
2022-12-28T06:07:57.262Z,3.70
2022-12-28T06:08:30.674Z,4.00
2022-12-28T06:09:04.433Z,4.60
2022-12-28T06:09:37.975Z,4.50
2022-12-28T06:10:11.414Z,4.40
2022-12-28T06:10:44.781Z,4.20
2022-12-28T06:11:21.912Z,4.60
2022-12-28T06:11:55.458Z,4.00
2022-12-28T06:12:29.408Z,4.10
2022-12-28T06:13:02.803Z,4.50
2022-12-28T06:13:36.841Z,5.00
2022-12-28T06:14:10.272Z,4.20
2022-12-28T06:14:43.826Z,4.70
2022-12-28T06:15:17.336Z,4.30
2022-12-28T06:15:50.671Z,4.40
2022-12-28T06:16:30.235Z,4.50
2022-12-28T06:17:03.790Z,4.80
2022-12-28T06:17:37.115Z,4.60
2022-12-28T06:18:10.381Z,5.10
2022-12-28T06:18:45.075Z,5.10
2022-12-28T06:19:18.502Z,4.90
2022-12-28T06:19:51.919Z,4.70
2022-12-28T06:20:25.423Z,5.10
2022-12-28T06:21:04.248Z,5.20
2022-12-28T06:21:40.178Z,5.00
2022-12-28T06:22:13.521Z,5.10
2022-12-28T06:22:46.926Z,4.80
2022-12-28T06:23:20.330Z,5.00
2022-12-28T06:23:55.434Z,5.50
2022-12-28T06:24:28.746Z,5.60
2022-12-28T06:25:02.143Z,5.70
2022-12-28T06:25:37.713Z,5.80
2022-12-28T06:26:13.808Z,5.70
2022-12-28T06:26:47.198Z,5.40
2022-12-28T06:27:20.551Z,5.80
2022-12-28T06:27:53.841Z,5.60
2022-12-28T06:28:27.902Z,5.20
2022-12-28T06:29:02.320Z,5.20
2022-12-28T06:29:35.856Z,5.50
2022-12-28T06:30:10.175Z,5.20
2022-12-28T06:30:47.542Z,5.40
2022-12-28T06:31:27.041Z,5.60
2022-12-28T06:32:01.546Z,5.50
2022-12-28T06:32:35.033Z,5.70
2022-12-28T06:33:08.325Z,5.60
2022-12-28T06:33:42.635Z,5.60
2022-12-28T06:34:16.084Z,6.40
2022-12-28T06:34:49.628Z,5.40
2022-12-28T06:35:23.345Z,5.60
2022-12-28T06:35:57.721Z,5.50
2022-12-28T06:36:34.433Z,5.60
2022-12-28T06:37:07.780Z,5.40
2022-12-28T06:37:41.131Z,5.50
2022-12-28T06:38:14.424Z,5.30
2022-12-28T06:38:49.167Z,4.70
2022-12-28T06:39:22.521Z,5.30
2022-12-28T06:39:55.958Z,5.00
2022-12-28T06:41:02.474Z,4.80
2022-12-28T06:41:23.555Z,4.90
2022-12-28T06:41:57.009Z,4.80
2022-12-28T06:42:30.371Z,4.70
2022-12-28T06:43:03.833Z,4.90
2022-12-28T06:43:39.271Z,5.30
2022-12-28T06:44:13.951Z,5.20
2022-12-28T06:44:47.370Z,5.50
2022-12-28T06:45:20.670Z,5.30
2022-12-28T06:45:56.698Z,5.10
2022-12-28T06:46:30.792Z,4.90
2022-12-28T06:47:04.250Z,5.20
2022-12-28T06:47:37.875Z,5.50
2022-12-28T06:48:11.240Z,5.00
2022-12-28T06:48:44.707Z,4.40
2022-12-28T06:49:18.032Z,4.60
2022-12-28T06:49:51.471Z,5.00
2022-12-28T06:50:24.813Z,5.10
2022-12-28T06:51:03.352Z,4.90
2022-12-28T06:51:42.371Z,5.10
2022-12-28T06:52:16.373Z,5.30
2022-12-28T06:52:49.758Z,5.60
2022-12-28T06:53:24.341Z,5.20
2022-12-28T06:53:58.207Z,5.80
2022-12-28T06:54:31.567Z,5.50
2022-12-28T06:55:05.302Z,5.30
2022-12-28T06:55:38.603Z,5.50
2022-12-28T06:56:15.365Z,5.10
2022-12-28T06:56:48.637Z,5.40
2022-12-28T06:57:22.028Z,5.20
2022-12-28T06:57:55.575Z,5.70
2022-12-28T06:58:30.501Z,5.30
2022-12-28T06:59:04.812Z,5.00
2022-12-28T06:59:38.167Z,5.10
2022-12-28T07:00:12.330Z,5.50
2022-12-28T07:00:45.756Z,5.40
2022-12-28T07:01:20.992Z,5.80
2022-12-28T07:01:54.532Z,6.00
2022-12-28T07:02:28.174Z,5.80
2022-12-28T07:03:01.750Z,5.80
2022-12-28T07:03:36.348Z,5.80
2022-12-28T07:04:10.417Z,5.90
2022-12-28T07:04:43.850Z,6.00
2022-12-28T07:05:17.217Z,5.80
2022-12-28T07:05:50.840Z,6.10
2022-12-28T07:06:26.857Z,5.80
2022-12-28T07:07:00.198Z,5.80
2022-12-28T07:07:33.583Z,5.30
2022-12-28T07:08:12.373Z,5.40
2022-12-28T07:08:46.855Z,6.30
2022-12-28T07:09:20.277Z,5.90
2022-12-28T07:09:53.780Z,6.10
2022-12-28T07:10:27.098Z,6.10
2022-12-28T07:11:14.965Z,6.10
2022-12-28T07:11:50.575Z,6.00
2022-12-28T07:12:24.006Z,6.20
2022-12-28T07:12:57.315Z,5.90
2022-12-28T07:13:30.706Z,6.50
2022-12-28T07:14:04.611Z,5.60
2022-12-28T07:14:38.007Z,5.60
2022-12-28T07:15:11.941Z,5.10
2022-12-28T07:15:45.316Z,5.10
2022-12-28T07:16:23.512Z,5.20
2022-12-28T07:16:57.033Z,4.90
2022-12-28T07:17:30.295Z,5.10
2022-12-28T07:18:03.689Z,5.60
2022-12-28T07:18:38.160Z,5.20
2022-12-28T07:19:11.683Z,5.30
2022-12-28T07:19:45.058Z,5.40
2022-12-28T07:20:18.415Z,5.30
2022-12-28T07:20:51.803Z,5.70
2022-12-28T07:21:28.384Z,5.60
2022-12-28T07:22:01.726Z,5.30
2022-12-28T07:22:35.077Z,5.10
2022-12-28T07:23:08.693Z,5.00
2022-12-28T07:23:42.595Z,5.30
2022-12-28T07:24:16.024Z,5.10
2022-12-28T07:24:49.323Z,5.40
2022-12-28T07:25:23.502Z,5.00
2022-12-28T07:25:58.709Z,5.30
2022-12-28T07:26:35.834Z,5.20
2022-12-28T07:27:09.142Z,5.10
2022-12-28T07:27:42.601Z,4.90
2022-12-28T07:28:15.997Z,5.40
2022-12-28T07:28:51.892Z,5.40
2022-12-28T07:29:25.265Z,5.50
2022-12-28T07:29:58.664Z,5.60
2022-12-28T07:30:32.157Z,5.30
2022-12-28T07:31:08.387Z,5.50
2022-12-28T07:31:45.751Z,5.50
2022-12-28T07:32:19.363Z,5.50
2022-12-28T07:32:52.897Z,5.70
2022-12-28T07:33:26.168Z,5.30
2022-12-28T07:34:00.683Z,5.80
2022-12-28T07:34:34.094Z,5.90
2022-12-28T07:35:07.777Z,6.20
2022-12-28T07:35:41.218Z,6.40
2022-12-28T07:36:17.956Z,5.90
2022-12-28T07:36:51.384Z,6.10
2022-12-28T07:37:24.919Z,5.90
2022-12-28T07:37:58.248Z,6.30
2022-12-28T07:38:31.691Z,5.90
2022-12-28T07:39:05.357Z,6.50
2022-12-28T07:39:38.618Z,6.10
2022-12-28T07:40:12.354Z,6.10
2022-12-28T07:40:45.761Z,6.60
2022-12-28T07:41:25.107Z,6.50
2022-12-28T07:41:58.419Z,6.40
2022-12-28T07:42:32.090Z,6.40
2022-12-28T07:43:07.249Z,6.20
2022-12-28T07:43:41.007Z,6.40
2022-12-28T07:44:14.314Z,6.40
2022-12-28T07:44:49.321Z,6.60
2022-12-28T07:45:23.037Z,6.50
2022-12-28T07:46:01.072Z,6.30
2022-12-28T07:46:36.413Z,6.40
2022-12-28T07:47:09.719Z,6.80
2022-12-28T07:47:43.158Z,6.30
2022-12-28T07:48:19.001Z,6.50
2022-12-28T07:48:53.337Z,6.00
2022-12-28T07:49:26.693Z,6.70
2022-12-28T07:50:00.157Z,6.30
2022-12-28T07:50:37.790Z,7.00
2022-12-28T07:51:32.232Z,6.30
2022-12-28T07:52:05.761Z,6.20
2022-12-28T07:52:39.129Z,6.20
2022-12-28T07:53:14.036Z,6.60
2022-12-28T07:53:52.298Z,6.30
2022-12-28T07:54:25.672Z,5.60
2022-12-28T07:54:59.009Z,6.30
2022-12-28T07:55:32.346Z,5.90
2022-12-28T07:56:06.707Z,6.70
2022-12-28T07:57:13.002Z,6.30
2022-12-28T07:57:46.651Z,6.50
2022-12-28T07:58:20.032Z,6.00
2022-12-28T07:58:57.805Z,7.10
2022-12-28T07:59:31.457Z,6.80
2022-12-28T08:00:05.254Z,6.50
2022-12-28T08:00:45.677Z,6.30
2022-12-28T08:01:21.267Z,7.10
2022-12-28T08:01:54.811Z,7.00
2022-12-28T08:02:28.400Z,7.10
2022-12-28T08:03:02.361Z,7.10
2022-12-28T08:03:36.507Z,6.60
2022-12-28T08:04:14.342Z,7.10
2022-12-28T08:04:52.139Z,6.40
2022-12-28T08:05:25.879Z,6.50
2022-12-28T08:06:06.328Z,6.40
2022-12-28T08:06:42.405Z,6.90
2022-12-28T08:07:15.825Z,6.30
2022-12-28T08:07:49.238Z,6.00
2022-12-28T08:08:22.639Z,5.20
2022-12-28T08:09:00.004Z,5.70
2022-12-28T08:09:33.392Z,5.60
2022-12-28T08:10:07.501Z,5.80
2022-12-28T08:10:40.834Z,5.70
2022-12-28T08:11:18.017Z,5.40
2022-12-28T08:11:51.485Z,5.40
2022-12-28T08:12:25.593Z,5.50
2022-12-28T08:13:01.731Z,5.50
2022-12-28T08:13:36.663Z,6.00
2022-12-28T08:14:10.725Z,6.30
2022-12-28T08:14:44.145Z,6.30
2022-12-28T08:15:17.605Z,6.30
2022-12-28T08:15:55.337Z,6.40
2022-12-28T08:16:33.066Z,6.60
2022-12-28T08:17:06.823Z,6.10
2022-12-28T08:17:40.241Z,6.50
2022-12-28T08:18:13.581Z,6.10
2022-12-28T08:18:47.726Z,6.70
2022-12-28T08:19:21.211Z,6.10
2022-12-28T08:19:55.751Z,6.40
2022-12-28T08:20:29.097Z,6.10
2022-12-28T08:21:07.815Z,6.10
2022-12-28T08:21:43.833Z,6.00
2022-12-28T08:22:17.418Z,6.00
2022-12-28T08:22:50.911Z,5.90
2022-12-28T08:23:24.385Z,6.10
2022-12-28T08:23:59.242Z,6.30
2022-12-28T08:24:32.589Z,6.40
2022-12-28T08:25:06.403Z,6.20
2022-12-28T08:25:39.747Z,6.10
2022-12-28T08:26:22.075Z,6.10
2022-12-28T08:26:55.602Z,6.40
2022-12-28T08:27:32.275Z,6.00
2022-12-28T08:28:09.974Z,5.80
2022-12-28T08:28:45.786Z,5.80
2022-12-28T08:29:21.866Z,6.00
2022-12-28T08:29:55.356Z,5.90
2022-12-28T08:30:28.808Z,6.10
2022-12-28T08:31:07.080Z,5.50
2022-12-28T08:31:42.888Z,6.00
2022-12-28T08:32:16.226Z,6.10
2022-12-28T08:32:49.670Z,6.00
2022-12-28T08:33:23.333Z,6.20
2022-12-28T08:33:59.488Z,5.90
2022-12-28T08:34:32.871Z,6.30
2022-12-28T08:35:06.532Z,6.00
2022-12-28T08:35:39.945Z,5.90
2022-12-28T08:36:13.885Z,5.90
2022-12-28T08:36:47.286Z,5.90
2022-12-28T08:37:20.648Z,6.00
2022-12-28T08:37:57.105Z,6.20
2022-12-28T08:38:30.721Z,6.50
2022-12-28T08:39:05.155Z,6.90
2022-12-28T08:39:38.462Z,6.20
2022-12-28T08:40:12.340Z,6.40
2022-12-28T08:40:57.671Z,5.90
2022-12-28T08:41:31.904Z,6.70
2022-12-28T08:42:05.370Z,6.00
2022-12-28T08:42:38.697Z,6.50
2022-12-28T08:43:12.076Z,6.60
2022-12-28T08:43:46.341Z,6.50
2022-12-28T08:44:19.763Z,7.00
2022-12-28T08:44:53.101Z,6.70
2022-12-28T08:45:26.901Z,6.70
2022-12-28T08:46:05.814Z,6.00
2022-12-28T08:46:41.442Z,6.60
2022-12-28T08:47:15.181Z,6.20
2022-12-28T08:47:48.685Z,6.40
2022-12-28T08:48:22.031Z,6.70
2022-12-28T08:48:58.655Z,6.40
2022-12-28T08:49:31.980Z,6.20
2022-12-28T08:50:06.259Z,6.80
2022-12-28T08:50:39.612Z,6.40
2022-12-28T08:51:14.684Z,6.50
2022-12-28T08:51:48.507Z,6.30
2022-12-28T08:52:21.812Z,6.50
2022-12-28T08:52:55.083Z,6.30
2022-12-28T08:53:28.763Z,6.40
2022-12-28T08:54:03.343Z,6.60
2022-12-28T08:54:37.441Z,7.10
2022-12-28T08:55:10.743Z,6.50
2022-12-28T08:55:44.134Z,6.70
2022-12-28T08:56:27.877Z,6.80
2022-12-28T08:57:01.307Z,7.00
2022-12-28T08:57:34.645Z,6.40